sensor_id;sensor_type;location;lat;lon;timestamp;P1;durP1;ratioP1;P2;durP2;ratioP2
6149;SDS011;3106;42.670;23.318;2022-10-03T00:02:07;4.13;;;2.70;;
6149;SDS011;3106;42.670;23.318;2022-10-03T00:04:54;7.00;;;2.70;;
6149;SDS011;3106;42.670;23.318;2022-10-03T00:07:35;5.33;;;2.73;;
6149;SDS011;3106;42.670;23.318;2022-10-03T00:10:19;3.77;;;2.93;;
6149;SDS011;3106;42.670;23.318;2022-10-03T00:12:59;5.10;;;3.00;;
6149;SDS011;3106;42.670;23.318;2022-10-03T00:15:34;6.37;;;3.07;;
6149;SDS011;3106;42.670;23.318;2022-10-03T00:18:13;7.50;;;3.10;;
6149;SDS011;3106;42.670;23.318;2022-10-03T00:20:52;2.77;;;2.57;;
6149;SDS011;3106;42.670;23.318;2022-10-03T00:23:37;4.50;;;3.30;;
6149;SDS011;3106;42.670;23.318;2022-10-03T00:26:13;3.30;;;2.73;;
6149;SDS011;3106;42.670;23.318;2022-10-03T00:28:57;4.23;;;2.60;;
6149;SDS011;3106;42.670;23.318;2022-10-03T00:31:52;7.73;;;3.10;;
6149;SDS011;3106;42.670;23.318;2022-10-03T00:34:27;4.77;;;2.70;;
6149;SDS011;3106;42.670;23.318;2022-10-03T00:37:11;6.00;;;2.60;;
6149;SDS011;3106;42.670;23.318;2022-10-03T00:39:57;8.83;;;2.93;;
6149;SDS011;3106;42.670;23.318;2022-10-03T00:46:05;3.47;;;2.23;;
6149;SDS011;3106;42.670;23.318;2022-10-03T00:51:56;4.30;;;2.77;;
6149;SDS011;3106;42.670;23.318;2022-10-03T00:54:49;3.50;;;2.40;;
6149;SDS011;3106;42.670;23.318;2022-10-03T00:57:35;7.50;;;2.50;;
6149;SDS011;3106;42.670;23.318;2022-10-03T01:00:15;3.20;;;2.70;;
6149;SDS011;3106;42.670;23.318;2022-10-03T01:02:49;3.20;;;2.50;;
6149;SDS011;3106;42.670;23.318;2022-10-03T01:05:35;8.20;;;2.40;;
6149;SDS011;3106;42.670;23.318;2022-10-03T01:08:21;4.03;;;2.20;;
6149;SDS011;3106;42.670;23.318;2022-10-03T01:11:04;3.90;;;2.60;;
6149;SDS011;3106;42.670;23.318;2022-10-03T01:13:44;3.67;;;2.93;;
6149;SDS011;3106;42.670;23.318;2022-10-03T01:16:24;6.10;;;2.90;;
6149;SDS011;3106;42.670;23.318;2022-10-03T01:19:03;9.23;;;3.37;;
6149;SDS011;3106;42.670;23.318;2022-10-03T01:21:47;3.63;;;2.90;;
6149;SDS011;3106;42.670;23.318;2022-10-03T01:24:37;4.70;;;3.23;;
6149;SDS011;3106;42.670;23.318;2022-10-03T01:27:16;7.30;;;2.90;;
6149;SDS011;3106;42.670;23.318;2022-10-03T01:29:51;6.30;;;3.37;;
6149;SDS011;3106;42.670;23.318;2022-10-03T01:32:42;6.30;;;3.20;;
6149;SDS011;3106;42.670;23.318;2022-10-03T01:35:19;5.60;;;3.07;;
6149;SDS011;3106;42.670;23.318;2022-10-03T01:38:01;4.67;;;3.13;;
6149;SDS011;3106;42.670;23.318;2022-10-03T01:40:36;13.90;;;3.50;;
6149;SDS011;3106;42.670;23.318;2022-10-03T01:43:11;4.77;;;3.00;;
6149;SDS011;3106;42.670;23.318;2022-10-03T01:45:48;10.20;;;3.50;;
6149;SDS011;3106;42.670;23.318;2022-10-03T01:48:27;4.10;;;3.53;;
6149;SDS011;3106;42.670;23.318;2022-10-03T01:51:02;9.83;;;3.37;;
6149;SDS011;3106;42.670;23.318;2022-10-03T01:53:40;7.57;;;3.13;;
6149;SDS011;3106;42.670;23.318;2022-10-03T01:56:17;5.83;;;3.27;;
6149;SDS011;3106;42.670;23.318;2022-10-03T01:58:53;6.63;;;3.50;;
6149;SDS011;3106;42.670;23.318;2022-10-03T02:01:30;3.80;;;3.10;;
6149;SDS011;3106;42.670;23.318;2022-10-03T02:04:05;3.77;;;3.10;;
6149;SDS011;3106;42.670;23.318;2022-10-03T02:06:46;7.43;;;3.43;;
6149;SDS011;3106;42.670;23.318;2022-10-03T02:09:34;4.30;;;3.00;;
6149;SDS011;3106;42.670;23.318;2022-10-03T02:12:07;6.90;;;3.10;;
6149;SDS011;3106;42.670;23.318;2022-10-03T02:14:50;3.97;;;2.33;;
6149;SDS011;3106;42.670;23.318;2022-10-03T02:17:23;4.20;;;2.83;;
6149;SDS011;3106;42.670;23.318;2022-10-03T02:19:59;3.83;;;2.70;;
6149;SDS011;3106;42.670;23.318;2022-10-03T02:22:32;6.67;;;2.87;;
6149;SDS011;3106;42.670;23.318;2022-10-03T02:25:06;3.80;;;2.50;;
6149;SDS011;3106;42.670;23.318;2022-10-03T02:30:52;5.73;;;2.50;;
6149;SDS011;3106;42.670;23.318;2022-10-03T02:36:48;3.10;;;2.80;;
6149;SDS011;3106;42.670;23.318;2022-10-03T02:43:10;3.17;;;2.70;;
6149;SDS011;3106;42.670;23.318;2022-10-03T02:46:09;3.30;;;3.00;;
6149;SDS011;3106;42.670;23.318;2022-10-03T02:49:12;3.63;;;3.00;;
6149;SDS011;3106;42.670;23.318;2022-10-03T02:52:03;7.50;;;3.67;;
6149;SDS011;3106;42.670;23.318;2022-10-03T02:57:58;6.00;;;3.90;;
6149;SDS011;3106;42.670;23.318;2022-10-03T03:00:46;8.60;;;4.70;;
6149;SDS011;3106;42.670;23.318;2022-10-03T03:03:39;10.53;;;3.90;;
6149;SDS011;3106;42.670;23.318;2022-10-03T03:06:31;15.80;;;5.53;;
6149;SDS011;3106;42.670;23.318;2022-10-03T03:09:31;8.17;;;5.03;;
6149;SDS011;3106;42.670;23.318;2022-10-03T03:18:21;12.97;;;5.40;;
6149;SDS011;3106;42.670;23.318;2022-10-03T03:21:01;10.97;;;4.70;;
6149;SDS011;3106;42.670;23.318;2022-10-03T03:23:43;8.03;;;5.30;;
6149;SDS011;3106;42.670;23.318;2022-10-03T03:29:27;10.80;;;6.90;;
6149;SDS011;3106;42.670;23.318;2022-10-03T03:32:06;7.90;;;5.67;;
6149;SDS011;3106;42.670;23.318;2022-10-03T03:34:41;9.77;;;6.03;;
6149;SDS011;3106;42.670;23.318;2022-10-03T03:37:16;7.97;;;4.83;;
6149;SDS011;3106;42.670;23.318;2022-10-03T03:39:55;11.30;;;5.20;;
6149;SDS011;3106;42.670;23.318;2022-10-03T03:42:38;10.60;;;5.37;;
6149;SDS011;3106;42.670;23.318;2022-10-03T03:45:22;10.43;;;5.10;;
6149;SDS011;3106;42.670;23.318;2022-10-03T03:48:02;6.13;;;4.67;;
6149;SDS011;3106;42.670;23.318;2022-10-03T03:50:44;7.87;;;5.23;;
6149;SDS011;3106;42.670;23.318;2022-10-03T03:56:22;10.00;;;4.30;;
6149;SDS011;3106;42.670;23.318;2022-10-03T03:59:02;6.17;;;4.37;;
6149;SDS011;3106;42.670;23.318;2022-10-03T04:01:48;7.83;;;4.30;;
6149;SDS011;3106;42.670;23.318;2022-10-03T04:04:38;7.60;;;4.07;;
6149;SDS011;3106;42.670;23.318;2022-10-03T04:07:19;7.47;;;4.57;;
6149;SDS011;3106;42.670;23.318;2022-10-03T04:10:07;5.73;;;4.67;;
6149;SDS011;3106;42.670;23.318;2022-10-03T04:12:59;7.80;;;4.10;;
6149;SDS011;3106;42.670;23.318;2022-10-03T04:15:55;18.23;;;4.60;;
6149;SDS011;3106;42.670;23.318;2022-10-03T04:18:43;9.43;;;5.73;;
6149;SDS011;3106;42.670;23.318;2022-10-03T04:21:31;7.83;;;5.10;;
6149;SDS011;3106;42.670;23.318;2022-10-03T04:24:14;8.13;;;4.70;;
6149;SDS011;3106;42.670;23.318;2022-10-03T04:27:07;9.07;;;4.87;;
6149;SDS011;3106;42.670;23.318;2022-10-03T04:29:52;13.60;;;5.10;;
6149;SDS011;3106;42.670;23.318;2022-10-03T04:32:38;6.53;;;5.33;;
6149;SDS011;3106;42.670;23.318;2022-10-03T04:35:26;9.00;;;5.53;;
6149;SDS011;3106;42.670;23.318;2022-10-03T04:38:10;7.40;;;4.90;;
6149;SDS011;3106;42.670;23.318;2022-10-03T04:40:47;9.53;;;6.10;;
6149;SDS011;3106;42.670;23.318;2022-10-03T04:43:22;18.67;;;5.60;;
6149;SDS011;3106;42.670;23.318;2022-10-03T04:46:16;6.33;;;4.83;;
6149;SDS011;3106;42.670;23.318;2022-10-03T04:48:51;16.00;;;8.63;;
6149;SDS011;3106;42.670;23.318;2022-10-03T04:51:29;17.97;;;6.37;;
6149;SDS011;3106;42.670;23.318;2022-10-03T04:54:11;13.93;;;5.10;;
6149;SDS011;3106;42.670;23.318;2022-10-03T04:56:47;8.60;;;5.10;;
6149;SDS011;3106;42.670;23.318;2022-10-03T04:59:37;8.03;;;4.30;;
6149;SDS011;3106;42.670;23.318;2022-10-03T05:02:15;8.57;;;4.60;;
6149;SDS011;3106;42.670;23.318;2022-10-03T05:04:53;17.80;;;5.80;;
6149;SDS011;3106;42.670;23.318;2022-10-03T05:07:44;14.17;;;5.67;;
6149;SDS011;3106;42.670;23.318;2022-10-03T05:10:29;12.33;;;5.10;;
6149;SDS011;3106;42.670;23.318;2022-10-03T05:13:13;7.83;;;4.90;;
6149;SDS011;3106;42.670;23.318;2022-10-03T05:15:49;15.13;;;6.70;;
6149;SDS011;3106;42.670;23.318;2022-10-03T05:18:26;11.70;;;5.77;;
6149;SDS011;3106;42.670;23.318;2022-10-03T05:21:04;9.17;;;5.10;;
6149;SDS011;3106;42.670;23.318;2022-10-03T05:23:44;11.97;;;5.67;;
6149;SDS011;3106;42.670;23.318;2022-10-03T05:26:21;10.80;;;4.80;;
6149;SDS011;3106;42.670;23.318;2022-10-03T05:28:53;11.53;;;5.47;;
6149;SDS011;3106;42.670;23.318;2022-10-03T05:31:29;12.77;;;5.43;;
6149;SDS011;3106;42.670;23.318;2022-10-03T05:34:09;10.07;;;5.33;;
6149;SDS011;3106;42.670;23.318;2022-10-03T05:36:51;11.50;;;5.93;;
6149;SDS011;3106;42.670;23.318;2022-10-03T05:39:33;10.87;;;5.53;;
6149;SDS011;3106;42.670;23.318;2022-10-03T05:45:20;10.90;;;5.50;;
6149;SDS011;3106;42.670;23.318;2022-10-03T05:47:57;14.47;;;5.67;;
6149;SDS011;3106;42.670;23.318;2022-10-03T05:50:48;11.17;;;5.80;;
6149;SDS011;3106;42.670;23.318;2022-10-03T05:53:45;13.63;;;5.73;;
6149;SDS011;3106;42.670;23.318;2022-10-03T05:56:42;11.30;;;5.47;;
6149;SDS011;3106;42.670;23.318;2022-10-03T05:59:35;25.87;;;6.00;;
6149;SDS011;3106;42.670;23.318;2022-10-03T06:02:29;19.80;;;6.40;;
6149;SDS011;3106;42.670;23.318;2022-10-03T06:05:35;11.73;;;5.90;;
6149;SDS011;3106;42.670;23.318;2022-10-03T06:08:31;16.23;;;6.27;;
6149;SDS011;3106;42.670;23.318;2022-10-03T06:11:30;24.73;;;7.53;;
6149;SDS011;3106;42.670;23.318;2022-10-03T06:20:20;11.43;;;6.10;;
6149;SDS011;3106;42.670;23.318;2022-10-03T06:23:11;11.80;;;5.90;;
6149;SDS011;3106;42.670;23.318;2022-10-03T06:26:02;11.23;;;6.23;;
6149;SDS011;3106;42.670;23.318;2022-10-03T06:32:13;17.90;;;6.37;;
6149;SDS011;3106;42.670;23.318;2022-10-03T06:38:10;13.30;;;6.83;;
6149;SDS011;3106;42.670;23.318;2022-10-03T06:41:16;12.27;;;6.80;;
6149;SDS011;3106;42.670;23.318;2022-10-03T06:44:21;24.40;;;6.80;;
6149;SDS011;3106;42.670;23.318;2022-10-03T06:47:09;15.80;;;6.70;;
6149;SDS011;3106;42.670;23.318;2022-10-03T06:52:54;13.33;;;7.30;;
6149;SDS011;3106;42.670;23.318;2022-10-03T06:55:38;33.57;;;8.77;;
6149;SDS011;3106;42.670;23.318;2022-10-03T06:58:35;27.40;;;8.40;;
6149;SDS011;3106;42.670;23.318;2022-10-03T07:01:22;23.90;;;8.93;;
6149;SDS011;3106;42.670;23.318;2022-10-03T07:04:11;25.13;;;8.00;;
6149;SDS011;3106;42.670;23.318;2022-10-03T07:10:14;11.13;;;6.80;;
6149;SDS011;3106;42.670;23.318;2022-10-03T07:13:01;18.93;;;9.87;;
6149;SDS011;3106;42.670;23.318;2022-10-03T07:15:46;16.90;;;7.50;;
6149;SDS011;3106;42.670;23.318;2022-10-03T07:24:36;11.50;;;7.33;;
6149;SDS011;3106;42.670;23.318;2022-10-03T07:27:37;15.77;;;7.67;;
6149;SDS011;3106;42.670;23.318;2022-10-03T07:30:14;25.73;;;7.53;;
6149;SDS011;3106;42.670;23.318;2022-10-03T07:32:51;25.53;;;7.40;;
6149;SDS011;3106;42.670;23.318;2022-10-03T07:36:10;13.87;;;7.73;;
6149;SDS011;3106;42.670;23.318;2022-10-03T07:45:38;16.20;;;7.40;;
6149;SDS011;3106;42.670;23.318;2022-10-03T07:51:13;15.37;;;8.23;;
6149;SDS011;3106;42.670;23.318;2022-10-03T07:57:14;18.77;;;9.47;;
6149;SDS011;3106;42.670;23.318;2022-10-03T07:59:57;21.13;;;10.90;;
6149;SDS011;3106;42.670;23.318;2022-10-03T08:02:45;18.77;;;8.80;;
6149;SDS011;3106;42.670;23.318;2022-10-03T08:05:40;15.93;;;8.70;;
6149;SDS011;3106;42.670;23.318;2022-10-03T08:08:29;15.53;;;7.10;;
6149;SDS011;3106;42.670;23.318;2022-10-03T08:11:29;13.47;;;6.43;;
6149;SDS011;3106;42.670;23.318;2022-10-03T08:14:17;10.57;;;5.07;;
6149;SDS011;3106;42.670;23.318;2022-10-03T08:19:57;11.93;;;7.30;;
6149;SDS011;3106;42.670;23.318;2022-10-03T08:22:54;15.43;;;6.27;;
6149;SDS011;3106;42.670;23.318;2022-10-03T08:25:43;10.20;;;5.73;;
6149;SDS011;3106;42.670;23.318;2022-10-03T08:31:50;18.73;;;7.73;;
6149;SDS011;3106;42.670;23.318;2022-10-03T08:34:58;11.80;;;6.10;;
6149;SDS011;3106;42.670;23.318;2022-10-03T08:37:50;7.37;;;4.47;;
6149;SDS011;3106;42.670;23.318;2022-10-03T08:44:08;14.23;;;4.80;;
6149;SDS011;3106;42.670;23.318;2022-10-03T08:47:30;7.03;;;4.30;;
6149;SDS011;3106;42.670;23.318;2022-10-03T08:50:23;5.10;;;4.10;;
6149;SDS011;3106;42.670;23.318;2022-10-03T08:56:12;9.07;;;5.33;;
6149;SDS011;3106;42.670;23.318;2022-10-03T08:59:04;6.93;;;4.33;;
6149;SDS011;3106;42.670;23.318;2022-10-03T09:01:51;5.00;;;4.20;;
6149;SDS011;3106;42.670;23.318;2022-10-03T09:14:31;5.67;;;3.20;;
6149;SDS011;3106;42.670;23.318;2022-10-03T09:17:19;15.50;;;3.77;;
6149;SDS011;3106;42.670;23.318;2022-10-03T09:20:24;5.40;;;3.20;;
6149;SDS011;3106;42.670;23.318;2022-10-03T09:26:23;3.30;;;2.80;;
6149;SDS011;3106;42.670;23.318;2022-10-03T09:29:32;6.33;;;2.93;;
6149;SDS011;3106;42.670;23.318;2022-10-03T09:32:26;3.77;;;3.17;;
6149;SDS011;3106;42.670;23.318;2022-10-03T09:35:21;5.70;;;3.20;;
6149;SDS011;3106;42.670;23.318;2022-10-03T09:41:26;4.07;;;3.47;;
6149;SDS011;3106;42.670;23.318;2022-10-03T09:44:29;4.00;;;2.73;;
6149;SDS011;3106;42.670;23.318;2022-10-03T09:53:31;5.23;;;3.50;;
6149;SDS011;3106;42.670;23.318;2022-10-03T09:59:28;5.80;;;4.00;;
6149;SDS011;3106;42.670;23.318;2022-10-03T10:02:12;2.70;;;2.50;;
6149;SDS011;3106;42.670;23.318;2022-10-03T10:08:23;8.17;;;4.50;;
6149;SDS011;3106;42.670;23.318;2022-10-03T10:11:06;5.77;;;3.10;;
6149;SDS011;3106;42.670;23.318;2022-10-03T10:13:57;3.50;;;2.80;;
6149;SDS011;3106;42.670;23.318;2022-10-03T10:16:53;4.53;;;2.83;;
6149;SDS011;3106;42.670;23.318;2022-10-03T10:19:56;8.67;;;2.70;;
6149;SDS011;3106;42.670;23.318;2022-10-03T10:22:54;4.30;;;2.67;;
6149;SDS011;3106;42.670;23.318;2022-10-03T10:29:08;3.87;;;2.50;;
6149;SDS011;3106;42.670;23.318;2022-10-03T10:41:16;2.20;;;2.10;;
6149;SDS011;3106;42.670;23.318;2022-10-03T10:44:17;3.37;;;2.60;;
6149;SDS011;3106;42.670;23.318;2022-10-03T11:05:45;2.33;;;2.10;;
6149;SDS011;3106;42.670;23.318;2022-10-03T11:08:53;2.57;;;2.37;;
6149;SDS011;3106;42.670;23.318;2022-10-03T11:17:58;2.63;;;2.07;;
6149;SDS011;3106;42.670;23.318;2022-10-03T11:20:59;4.80;;;3.00;;
6149;SDS011;3106;42.670;23.318;2022-10-03T11:26:55;3.07;;;2.80;;
6149;SDS011;3106;42.670;23.318;2022-10-03T11:29:59;2.93;;;2.70;;
6149;SDS011;3106;42.670;23.318;2022-10-03T11:36:05;3.80;;;3.30;;
6149;SDS011;3106;42.670;23.318;2022-10-03T11:38:49;8.83;;;3.80;;
6149;SDS011;3106;42.670;23.318;2022-10-03T11:41:30;4.20;;;3.80;;
6149;SDS011;3106;42.670;23.318;2022-10-03T11:44:14;4.90;;;4.30;;
6149;SDS011;3106;42.670;23.318;2022-10-03T11:46:56;8.63;;;3.87;;
6149;SDS011;3106;42.670;23.318;2022-10-03T11:49:42;4.07;;;3.63;;
6149;SDS011;3106;42.670;23.318;2022-10-03T11:52:26;4.20;;;3.33;;
6149;SDS011;3106;42.670;23.318;2022-10-03T11:55:05;4.10;;;3.10;;
6149;SDS011;3106;42.670;23.318;2022-10-03T11:57:48;4.40;;;3.60;;
6149;SDS011;3106;42.670;23.318;2022-10-03T12:00:21;4.23;;;3.83;;
6149;SDS011;3106;42.670;23.318;2022-10-03T12:02:53;4.70;;;4.17;;
6149;SDS011;3106;42.670;23.318;2022-10-03T12:05:37;4.50;;;4.10;;
6149;SDS011;3106;42.670;23.318;2022-10-03T12:08:18;3.83;;;3.53;;
6149;SDS011;3106;42.670;23.318;2022-10-03T12:11:09;4.17;;;3.60;;
6149;SDS011;3106;42.670;23.318;2022-10-03T12:13:57;4.60;;;4.20;;
6149;SDS011;3106;42.670;23.318;2022-10-03T12:16:35;7.07;;;4.53;;
6149;SDS011;3106;42.670;23.318;2022-10-03T12:19:17;7.00;;;4.30;;
6149;SDS011;3106;42.670;23.318;2022-10-03T12:22:07;6.23;;;4.93;;
6149;SDS011;3106;42.670;23.318;2022-10-03T12:24:46;6.30;;;4.53;;
6149;SDS011;3106;42.670;23.318;2022-10-03T12:27:18;6.40;;;4.80;;
6149;SDS011;3106;42.670;23.318;2022-10-03T12:29:54;9.03;;;4.57;;
6149;SDS011;3106;42.670;23.318;2022-10-03T12:32:27;7.87;;;3.90;;
6149;SDS011;3106;42.670;23.318;2022-10-03T12:35:06;6.50;;;4.23;;
6149;SDS011;3106;42.670;23.318;2022-10-03T12:37:50;4.60;;;4.10;;
6149;SDS011;3106;42.670;23.318;2022-10-03T12:40:30;4.13;;;3.73;;
6149;SDS011;3106;42.670;23.318;2022-10-03T12:43:04;3.90;;;3.50;;
6149;SDS011;3106;42.670;23.318;2022-10-03T12:45:49;3.70;;;3.40;;
6149;SDS011;3106;42.670;23.318;2022-10-03T12:48:36;4.47;;;4.07;;
6149;SDS011;3106;42.670;23.318;2022-10-03T12:51:14;5.40;;;4.03;;
6149;SDS011;3106;42.670;23.318;2022-10-03T12:53:49;4.10;;;3.70;;
6149;SDS011;3106;42.670;23.318;2022-10-03T12:56:28;4.97;;;4.27;;
6149;SDS011;3106;42.670;23.318;2022-10-03T12:59:06;8.03;;;4.73;;
6149;SDS011;3106;42.670;23.318;2022-10-03T13:01:45;4.93;;;4.30;;
6149;SDS011;3106;42.670;23.318;2022-10-03T13:04:28;6.23;;;4.33;;
6149;SDS011;3106;42.670;23.318;2022-10-03T13:07:14;6.90;;;4.00;;
6149;SDS011;3106;42.670;23.318;2022-10-03T13:09:56;4.60;;;4.20;;
6149;SDS011;3106;42.670;23.318;2022-10-03T13:12:34;4.60;;;4.20;;
6149;SDS011;3106;42.670;23.318;2022-10-03T13:18:30;8.20;;;4.27;;
6149;SDS011;3106;42.670;23.318;2022-10-03T13:21:04;5.60;;;4.50;;
6149;SDS011;3106;42.670;23.318;2022-10-03T13:23:38;6.53;;;3.80;;
6149;SDS011;3106;42.670;23.318;2022-10-03T13:26:13;4.53;;;4.13;;
6149;SDS011;3106;42.670;23.318;2022-10-03T13:29:07;5.60;;;4.23;;
6149;SDS011;3106;42.670;23.318;2022-10-03T13:31:54;4.53;;;3.77;;
6149;SDS011;3106;42.670;23.318;2022-10-03T13:34:32;4.40;;;4.00;;
6149;SDS011;3106;42.670;23.318;2022-10-03T13:37:03;6.70;;;4.23;;
6149;SDS011;3106;42.670;23.318;2022-10-03T13:39:36;6.33;;;4.50;;
6149;SDS011;3106;42.670;23.318;2022-10-03T13:42:12;3.53;;;3.03;;
6149;SDS011;3106;42.670;23.318;2022-10-03T13:44:47;3.60;;;3.30;;
6149;SDS011;3106;42.670;23.318;2022-10-03T13:50:12;8.30;;;3.83;;
6149;SDS011;3106;42.670;23.318;2022-10-03T13:52:43;3.60;;;3.30;;
6149;SDS011;3106;42.670;23.318;2022-10-03T13:55:15;4.33;;;3.37;;
6149;SDS011;3106;42.670;23.318;2022-10-03T13:58:13;5.23;;;4.00;;
6149;SDS011;3106;42.670;23.318;2022-10-03T14:00:55;5.30;;;3.60;;
6149;SDS011;3106;42.670;23.318;2022-10-03T14:03:36;4.17;;;3.77;;
6149;SDS011;3106;42.670;23.318;2022-10-03T14:06:14;6.20;;;3.40;;
6149;SDS011;3106;42.670;23.318;2022-10-03T14:11:51;4.20;;;3.80;;
6149;SDS011;3106;42.670;23.318;2022-10-03T14:14:35;3.80;;;3.00;;
6149;SDS011;3106;42.670;23.318;2022-10-03T14:17:15;3.90;;;3.50;;
6149;SDS011;3106;42.670;23.318;2022-10-03T14:19:53;4.20;;;3.57;;
6149;SDS011;3106;42.670;23.318;2022-10-03T14:22:34;3.17;;;2.87;;
6149;SDS011;3106;42.670;23.318;2022-10-03T14:25:13;6.00;;;2.60;;
6149;SDS011;3106;42.670;23.318;2022-10-03T14:27:48;4.17;;;2.50;;
6149;SDS011;3106;42.670;23.318;2022-10-03T14:30:19;3.10;;;2.80;;
6149;SDS011;3106;42.670;23.318;2022-10-03T14:32:57;2.77;;;2.50;;
6149;SDS011;3106;42.670;23.318;2022-10-03T14:35:35;8.10;;;3.07;;
6149;SDS011;3106;42.670;23.318;2022-10-03T14:41:27;4.30;;;2.57;;
6149;SDS011;3106;42.670;23.318;2022-10-03T14:44:11;3.63;;;3.17;;
6149;SDS011;3106;42.670;23.318;2022-10-03T14:46:43;3.40;;;3.10;;
6149;SDS011;3106;42.670;23.318;2022-10-03T14:49:18;5.40;;;4.07;;
6149;SDS011;3106;42.670;23.318;2022-10-03T14:51:50;5.83;;;3.43;;
6149;SDS011;3106;42.670;23.318;2022-10-03T14:54:24;4.53;;;3.00;;
6149;SDS011;3106;42.670;23.318;2022-10-03T14:56:53;3.77;;;3.47;;
6149;SDS011;3106;42.670;23.318;2022-10-03T14:59:21;3.90;;;3.30;;
6149;SDS011;3106;42.670;23.318;2022-10-03T15:01:53;5.67;;;3.60;;
6149;SDS011;3106;42.670;23.318;2022-10-03T15:04:26;4.40;;;3.50;;
6149;SDS011;3106;42.670;23.318;2022-10-03T15:06:57;5.97;;;3.90;;
6149;SDS011;3106;42.670;23.318;2022-10-03T15:09:27;6.80;;;3.70;;
6149;SDS011;3106;42.670;23.318;2022-10-03T15:11:59;6.00;;;4.20;;
6149;SDS011;3106;42.670;23.318;2022-10-03T15:14:32;5.30;;;4.13;;
6149;SDS011;3106;42.670;23.318;2022-10-03T15:17:03;5.30;;;4.10;;
6149;SDS011;3106;42.670;23.318;2022-10-03T15:19:34;5.23;;;4.17;;
6149;SDS011;3106;42.670;23.318;2022-10-03T15:22:06;8.40;;;4.23;;
6149;SDS011;3106;42.670;23.318;2022-10-03T15:24:44;6.57;;;4.00;;
6149;SDS011;3106;42.670;23.318;2022-10-03T15:27:15;5.67;;;4.13;;
6149;SDS011;3106;42.670;23.318;2022-10-03T15:29:46;7.67;;;3.70;;
6149;SDS011;3106;42.670;23.318;2022-10-03T15:32:18;4.20;;;3.80;;
6149;SDS011;3106;42.670;23.318;2022-10-03T15:34:51;5.80;;;3.17;;
6149;SDS011;3106;42.670;23.318;2022-10-03T15:37:23;5.70;;;3.70;;
6149;SDS011;3106;42.670;23.318;2022-10-03T15:39:58;6.80;;;4.07;;
6149;SDS011;3106;42.670;23.318;2022-10-03T15:42:29;5.40;;;3.80;;
6149;SDS011;3106;42.670;23.318;2022-10-03T15:44:59;3.60;;;3.30;;
6149;SDS011;3106;42.670;23.318;2022-10-03T15:47:30;7.73;;;4.20;;
6149;SDS011;3106;42.670;23.318;2022-10-03T15:50:00;4.97;;;3.80;;
6149;SDS011;3106;42.670;23.318;2022-10-03T15:52:32;5.80;;;3.63;;
6149;SDS011;3106;42.670;23.318;2022-10-03T15:55:06;5.43;;;3.97;;
6149;SDS011;3106;42.670;23.318;2022-10-03T15:57:41;5.07;;;3.87;;
6149;SDS011;3106;42.670;23.318;2022-10-03T16:00:18;7.70;;;3.90;;
6149;SDS011;3106;42.670;23.318;2022-10-03T16:02:47;5.10;;;4.30;;
6149;SDS011;3106;42.670;23.318;2022-10-03T16:05:20;6.60;;;3.37;;
6149;SDS011;3106;42.670;23.318;2022-10-03T16:07:52;4.97;;;4.00;;
6149;SDS011;3106;42.670;23.318;2022-10-03T16:10:26;4.47;;;3.30;;
6149;SDS011;3106;42.670;23.318;2022-10-03T16:12:59;4.33;;;3.07;;
6149;SDS011;3106;42.670;23.318;2022-10-03T16:15:37;3.10;;;2.80;;
6149;SDS011;3106;42.670;23.318;2022-10-03T16:21:36;4.70;;;3.80;;
6149;SDS011;3106;42.670;23.318;2022-10-03T16:27:02;2.83;;;2.60;;
6149;SDS011;3106;42.670;23.318;2022-10-03T16:29:33;3.13;;;2.83;;
6149;SDS011;3106;42.670;23.318;2022-10-03T16:32:03;3.63;;;3.20;;
6149;SDS011;3106;42.670;23.318;2022-10-03T16:34:33;3.87;;;2.90;;
6149;SDS011;3106;42.670;23.318;2022-10-03T16:37:16;4.23;;;3.10;;
6149;SDS011;3106;42.670;23.318;2022-10-03T16:39:49;7.37;;;2.97;;
6149;SDS011;3106;42.670;23.318;2022-10-03T16:42:21;3.57;;;3.00;;
6149;SDS011;3106;42.670;23.318;2022-10-03T16:44:51;12.70;;;3.37;;
6149;SDS011;3106;42.670;23.318;2022-10-03T16:47:29;5.70;;;3.70;;
6149;SDS011;3106;42.670;23.318;2022-10-03T16:49:59;3.23;;;2.93;;
6149;SDS011;3106;42.670;23.318;2022-10-03T16:52:48;4.50;;;3.63;;
6149;SDS011;3106;42.670;23.318;2022-10-03T16:55:20;3.73;;;3.20;;
6149;SDS011;3106;42.670;23.318;2022-10-03T16:57:54;9.93;;;3.40;;
6149;SDS011;3106;42.670;23.318;2022-10-03T17:00:25;3.63;;;3.20;;
6149;SDS011;3106;42.670;23.318;2022-10-03T17:02:58;3.73;;;3.30;;
6149;SDS011;3106;42.670;23.318;2022-10-03T17:05:27;4.20;;;3.47;;
6149;SDS011;3106;42.670;23.318;2022-10-03T17:08:11;3.93;;;3.20;;
6149;SDS011;3106;42.670;23.318;2022-10-03T17:10:43;9.37;;;3.00;;
6149;SDS011;3106;42.670;23.318;2022-10-03T17:13:19;3.43;;;3.13;;
6149;SDS011;3106;42.670;23.318;2022-10-03T17:15:49;9.83;;;3.77;;
6149;SDS011;3106;42.670;23.318;2022-10-03T17:21:51;4.27;;;3.30;;
6149;SDS011;3106;42.670;23.318;2022-10-03T17:24:23;6.27;;;3.60;;
6149;SDS011;3106;42.670;23.318;2022-10-03T17:30:00;6.23;;;3.10;;
6149;SDS011;3106;42.670;23.318;2022-10-03T17:32:33;5.50;;;3.33;;
6149;SDS011;3106;42.670;23.318;2022-10-03T17:35:06;7.63;;;3.53;;
6149;SDS011;3106;42.670;23.318;2022-10-03T17:37:50;6.93;;;3.73;;
6149;SDS011;3106;42.670;23.318;2022-10-03T17:40:30;4.97;;;3.23;;
6149;SDS011;3106;42.670;23.318;2022-10-03T17:43:19;4.60;;;3.17;;
6149;SDS011;3106;42.670;23.318;2022-10-03T17:46:00;9.10;;;4.03;;
6149;SDS011;3106;42.670;23.318;2022-10-03T17:48:33;6.30;;;3.63;;
6149;SDS011;3106;42.670;23.318;2022-10-03T17:51:26;5.57;;;3.50;;
6149;SDS011;3106;42.670;23.318;2022-10-03T17:53:57;6.20;;;3.40;;
6149;SDS011;3106;42.670;23.318;2022-10-03T17:56:26;6.30;;;3.73;;
6149;SDS011;3106;42.670;23.318;2022-10-03T17:58:57;5.93;;;3.20;;
6149;SDS011;3106;42.670;23.318;2022-10-03T18:01:30;3.97;;;3.17;;
6149;SDS011;3106;42.670;23.318;2022-10-03T18:04:02;3.87;;;3.30;;
6149;SDS011;3106;42.670;23.318;2022-10-03T18:09:21;8.40;;;3.40;;
6149;SDS011;3106;42.670;23.318;2022-10-03T18:11:53;3.57;;;3.17;;
6149;SDS011;3106;42.670;23.318;2022-10-03T18:14:30;4.30;;;3.10;;
6149;SDS011;3106;42.670;23.318;2022-10-03T18:17:08;6.23;;;2.87;;
6149;SDS011;3106;42.670;23.318;2022-10-03T18:19:49;4.00;;;3.23;;
6149;SDS011;3106;42.670;23.318;2022-10-03T18:22:32;4.67;;;3.10;;
6149;SDS011;3106;42.670;23.318;2022-10-03T18:25:07;4.10;;;2.90;;
6149;SDS011;3106;42.670;23.318;2022-10-03T18:28:03;4.23;;;2.70;;
6149;SDS011;3106;42.670;23.318;2022-10-03T18:30:39;3.80;;;2.37;;
6149;SDS011;3106;42.670;23.318;2022-10-03T18:33:12;3.80;;;2.60;;
6149;SDS011;3106;42.670;23.318;2022-10-03T18:35:41;6.03;;;2.83;;
6149;SDS011;3106;42.670;23.318;2022-10-03T18:38:12;3.50;;;2.60;;
6149;SDS011;3106;42.670;23.318;2022-10-03T18:40:44;5.93;;;2.50;;
6149;SDS011;3106;42.670;23.318;2022-10-03T18:43:31;4.33;;;2.80;;
6149;SDS011;3106;42.670;23.318;2022-10-03T18:46:07;6.87;;;2.90;;
6149;SDS011;3106;42.670;23.318;2022-10-03T18:48:44;22.07;;;3.77;;
6149;SDS011;3106;42.670;23.318;2022-10-03T19:04:32;3.70;;;2.20;;
6149;SDS011;3106;42.670;23.318;2022-10-03T19:07:09;9.63;;;2.60;;
6149;SDS011;3106;42.670;23.318;2022-10-03T19:09:46;3.10;;;2.17;;
6149;SDS011;3106;42.670;23.318;2022-10-03T19:12:32;4.20;;;2.47;;
6149;SDS011;3106;42.670;23.318;2022-10-03T19:15:06;3.90;;;2.87;;
6149;SDS011;3106;42.670;23.318;2022-10-03T19:17:48;3.13;;;2.60;;
6149;SDS011;3106;42.670;23.318;2022-10-03T19:20:27;2.30;;;2.10;;
6149;SDS011;3106;42.670;23.318;2022-10-03T19:22:59;7.37;;;2.90;;
6149;SDS011;3106;42.670;23.318;2022-10-03T19:25:31;3.47;;;2.67;;
6149;SDS011;3106;42.670;23.318;2022-10-03T19:28:04;6.33;;;2.83;;
6149;SDS011;3106;42.670;23.318;2022-10-03T19:30:33;5.00;;;2.70;;
6149;SDS011;3106;42.670;23.318;2022-10-03T19:33:02;4.57;;;2.60;;
6149;SDS011;3106;42.670;23.318;2022-10-03T19:35:34;3.10;;;2.50;;
6149;SDS011;3106;42.670;23.318;2022-10-03T19:38:14;5.47;;;3.10;;
6149;SDS011;3106;42.670;23.318;2022-10-03T19:40:50;6.40;;;2.47;;
6149;SDS011;3106;42.670;23.318;2022-10-03T19:43:39;5.03;;;2.43;;
6149;SDS011;3106;42.670;23.318;2022-10-03T19:49:10;2.50;;;2.30;;